sensor_id;sensor_type;location;lat;lon;timestamp;pressure;altitude;pressure_sealevel;temperature;humidity
40612;BME280;26317;44.894;20.286;2023-07-09T00:02:27;101131.03;;;23.08;61.19
40612;BME280;26317;44.894;20.286;2023-07-09T00:04:57;101134.78;;;23.03;60.73
40612;BME280;26317;44.894;20.286;2023-07-09T00:07:29;101137.41;;;23.00;60.54
40612;BME280;26317;44.894;20.286;2023-07-09T00:10:00;101137.81;;;22.89;60.67
40612;BME280;26317;44.894;20.286;2023-07-09T00:12:32;101130.97;;;22.83;60.73
40612;BME280;26317;44.894;20.286;2023-07-09T00:15:04;101139.63;;;22.85;60.52
40612;BME280;26317;44.894;20.286;2023-07-09T00:17:36;101143.97;;;22.86;61.15
40612;BME280;26317;44.894;20.286;2023-07-09T00:20:11;101150.91;;;22.84;60.81
40612;BME280;26317;44.894;20.286;2023-07-09T00:22:42;101144.38;;;22.76;61.21
40612;BME280;26317;44.894;20.286;2023-07-09T00:25:15;101161.72;;;22.80;62.18
40612;BME280;26317;44.894;20.286;2023-07-09T00:27:48;101155.34;;;22.76;62.67
40612;BME280;26317;44.894;20.286;2023-07-09T00:30:20;101156.47;;;22.75;63.01
40612;BME280;26317;44.894;20.286;2023-07-09T00:32:51;101153.59;;;22.72;63.48
40612;BME280;26317;44.894;20.286;2023-07-09T00:35:22;101164.53;;;22.72;63.56
40612;BME280;26317;44.894;20.286;2023-07-09T00:37:53;101158.00;;;22.64;63.93
40612;BME280;26317;44.894;20.286;2023-07-09T00:40:27;101159.28;;;22.67;64.20
40612;BME280;26317;44.894;20.286;2023-07-09T00:43:01;101161.06;;;22.63;64.48
40612;BME280;26317;44.894;20.286;2023-07-09T00:45:31;101155.94;;;22.61;64.44
40612;BME280;26317;44.894;20.286;2023-07-09T00:48:05;101155.03;;;22.57;64.54
40612;BME280;26317;44.894;20.286;2023-07-09T00:50:42;101168.56;;;22.54;65.09
40612;BME280;26317;44.894;20.286;2023-07-09T00:53:19;101167.97;;;22.48;64.98
40612;BME280;26317;44.894;20.286;2023-07-09T00:55:52;101162.69;;;22.43;64.46
40612;BME280;26317;44.894;20.286;2023-07-09T00:58:28;101163.91;;;22.33;63.71
40612;BME280;26317;44.894;20.286;2023-07-09T01:01:02;101157.84;;;22.28;64.25
40612;BME280;26317;44.894;20.286;2023-07-09T01:03:36;101157.91;;;22.19;64.81
40612;BME280;26317;44.894;20.286;2023-07-09T01:06:09;101146.13;;;22.07;65.09
40612;BME280;26317;44.894;20.286;2023-07-09T01:08:40;101140.94;;;21.84;65.45
40612;BME280;26317;44.894;20.286;2023-07-09T01:11:15;101154.41;;;21.89;66.08
40612;BME280;26317;44.894;20.286;2023-07-09T01:13:52;101159.59;;;21.82;67.12
40612;BME280;26317;44.894;20.286;2023-07-09T01:16:28;101155.44;;;21.76;67.91
40612;BME280;26317;44.894;20.286;2023-07-09T01:18:59;101158.34;;;21.71;68.63
40612;BME280;26317;44.894;20.286;2023-07-09T01:21:35;101156.97;;;21.65;68.62
40612;BME280;26317;44.894;20.286;2023-07-09T01:24:13;101159.88;;;21.60;69.52
40612;BME280;26317;44.894;20.286;2023-07-09T01:26:54;101149.78;;;21.52;68.99
40612;BME280;26317;44.894;20.286;2023-07-09T01:29:24;101162.97;;;21.50;68.98
40612;BME280;26317;44.894;20.286;2023-07-09T01:31:55;101168.41;;;21.50;69.08
40612;BME280;26317;44.894;20.286;2023-07-09T01:34:25;101169.09;;;21.47;69.08
40612;BME280;26317;44.894;20.286;2023-07-09T01:37:01;101164.75;;;21.46;69.41
40612;BME280;26317;44.894;20.286;2023-07-09T01:39:31;101174.69;;;21.50;69.28
40612;BME280;26317;44.894;20.286;2023-07-09T01:42:03;101162.69;;;21.43;69.20
40612;BME280;26317;44.894;20.286;2023-07-09T01:44:35;101171.34;;;21.45;69.57
40612;BME280;26317;44.894;20.286;2023-07-09T01:47:06;101169.75;;;21.44;69.38
40612;BME280;26317;44.894;20.286;2023-07-09T01:49:37;101169.59;;;21.40;69.85
40612;BME280;26317;44.894;20.286;2023-07-09T01:52:10;101175.91;;;21.32;70.72
40612;BME280;26317;44.894;20.286;2023-07-09T01:54:40;101174.75;;;21.33;71.00
40612;BME280;26317;44.894;20.286;2023-07-09T01:57:19;101176.88;;;21.28;71.39
40612;BME280;26317;44.894;20.286;2023-07-09T01:59:52;101183.63;;;21.22;71.33
40612;BME280;26317;44.894;20.286;2023-07-09T02:02:23;101165.03;;;21.06;70.91
40612;BME280;26317;44.894;20.286;2023-07-09T02:04:56;101188.13;;;21.18;70.97
40612;BME280;26317;44.894;20.286;2023-07-09T02:07:29;101189.09;;;21.13;70.61
40612;BME280;26317;44.894;20.286;2023-07-09T02:09:59;101187.66;;;21.07;70.72
40612;BME280;26317;44.894;20.286;2023-07-09T02:12:31;101177.44;;;20.95;70.65
40612;BME280;26317;44.894;20.286;2023-07-09T02:15:02;101183.63;;;21.04;70.92
40612;BME280;26317;44.894;20.286;2023-07-09T02:17:33;101192.63;;;21.05;70.69
40612;BME280;26317;44.894;20.286;2023-07-09T02:20:04;101188.50;;;20.99;70.47
40612;BME280;26317;44.894;20.286;2023-07-09T02:22:38;101188.16;;;21.00;70.78
40612;BME280;26317;44.894;20.286;2023-07-09T02:25:09;101187.19;;;20.96;70.95
40612;BME280;26317;44.894;20.286;2023-07-09T02:27:39;101194.25;;;20.97;70.96
40612;BME280;26317;44.894;20.286;2023-07-09T02:30:10;101187.84;;;20.93;71.22
40612;BME280;26317;44.894;20.286;2023-07-09T02:32:41;101199.41;;;20.90;71.07
40612;BME280;26317;44.894;20.286;2023-07-09T02:35:11;101184.69;;;20.83;71.32
40612;BME280;26317;44.894;20.286;2023-07-09T02:37:44;101181.63;;;20.76;71.62
40612;BME280;26317;44.894;20.286;2023-07-09T02:40:14;101183.38;;;20.72;72.24
40612;BME280;26317;44.894;20.286;2023-07-09T02:42:45;101204.09;;;20.73;72.04
40612;BME280;26317;44.894;20.286;2023-07-09T02:45:18;101196.41;;;20.66;72.24
40612;BME280;26317;44.894;20.286;2023-07-09T02:47:48;101198.47;;;20.60;72.48
40612;BME280;26317;44.894;20.286;2023-07-09T02:50:19;101200.72;;;20.58;72.55
40612;BME280;26317;44.894;20.286;2023-07-09T02:52:52;101197.38;;;20.53;73.17
40612;BME280;26317;44.894;20.286;2023-07-09T02:55:23;101206.81;;;20.47;73.38
40612;BME280;26317;44.894;20.286;2023-07-09T02:57:53;101205.84;;;20.43;73.30
40612;BME280;26317;44.894;20.286;2023-07-09T03:00:24;101198.47;;;20.35;73.13
40612;BME280;26317;44.894;20.286;2023-07-09T03:02:54;101208.09;;;20.41;72.96
40612;BME280;26317;44.894;20.286;2023-07-09T03:05:25;101214.19;;;20.38;72.82
40612;BME280;26317;44.894;20.286;2023-07-09T03:07:59;101214.97;;;20.30;73.25
40612;BME280;26317;44.894;20.286;2023-07-09T03:10:29;101214.13;;;20.20;73.46
40612;BME280;26317;44.894;20.286;2023-07-09T03:13:00;101209.97;;;20.23;73.64
40612;BME280;26317;44.894;20.286;2023-07-09T03:15:31;101205.31;;;20.15;73.99
40612;BME280;26317;44.894;20.286;2023-07-09T03:18:01;101215.41;;;20.14;73.75
40612;BME280;26317;44.894;20.286;2023-07-09T03:20:32;101224.06;;;20.16;73.44
40612;BME280;26317;44.894;20.286;2023-07-09T03:23:05;101212.03;;;20.17;73.48
40612;BME280;26317;44.894;20.286;2023-07-09T03:25:40;101212.38;;;20.16;74.03
40612;BME280;26317;44.894;20.286;2023-07-09T03:28:10;101214.59;;;20.14;73.93
40612;BME280;26317;44.894;20.286;2023-07-09T03:30:41;101222.31;;;20.12;74.59
40612;BME280;26317;44.894;20.286;2023-07-09T03:33:13;101216.66;;;20.08;74.45
40612;BME280;26317;44.894;20.286;2023-07-09T03:35:44;101212.50;;;20.02;74.25
40612;BME280;26317;44.894;20.286;2023-07-09T03:38:17;101214.13;;;20.03;74.40
40612;BME280;26317;44.894;20.286;2023-07-09T03:40:50;101217.63;;;19.95;74.69
40612;BME280;26317;44.894;20.286;2023-07-09T03:43:21;101222.56;;;19.93;74.69
40612;BME280;26317;44.894;20.286;2023-07-09T03:45:51;101243.88;;;19.91;74.88
40612;BME280;26317;44.894;20.286;2023-07-09T03:48:21;101246.09;;;19.89;75.18
40612;BME280;26317;44.894;20.286;2023-07-09T03:50:52;101254.94;;;19.95;75.14
40612;BME280;26317;44.894;20.286;2023-07-09T03:53:25;101250.13;;;20.00;74.97
40612;BME280;26317;44.894;20.286;2023-07-09T03:55:56;101243.75;;;20.05;75.29
40612;BME280;26317;44.894;20.286;2023-07-09T03:58:27;101242.50;;;20.11;75.22
40612;BME280;26317;44.894;20.286;2023-07-09T04:00:58;101242.97;;;20.13;74.59
40612;BME280;26317;44.894;20.286;2023-07-09T04:03:28;101223.41;;;20.02;74.63
40612;BME280;26317;44.894;20.286;2023-07-09T04:05:59;101231.13;;;20.17;75.51
40612;BME280;26317;44.894;20.286;2023-07-09T04:08:32;101238.63;;;20.20;75.60
40612;BME280;26317;44.894;20.286;2023-07-09T04:11:02;101242.00;;;20.17;75.70
40612;BME280;26317;44.894;20.286;2023-07-09T04:13:33;101247.78;;;20.16;76.00
40612;BME280;26317;44.894;20.286;2023-07-09T04:16:04;101230.94;;;20.14;75.35
40612;BME280;26317;44.894;20.286;2023-07-09T04:18:34;101243.94;;;20.26;75.80
40612;BME280;26317;44.894;20.286;2023-07-09T04:21:05;101223.44;;;20.19;75.55
40612;BME280;26317;44.894;20.286;2023-07-09T04:23:38;101239.78;;;20.19;76.30
40612;BME280;26317;44.894;20.286;2023-07-09T04:26:12;101250.19;;;20.26;76.51
40612;BME280;26317;44.894;20.286;2023-07-09T04:28:43;101244.78;;;20.35;76.30
40612;BME280;26317;44.894;20.286;2023-07-09T04:31:13;101250.09;;;20.40;76.11
40612;BME280;26317;44.894;20.286;2023-07-09T04:33:43;101248.03;;;20.45;76.26
40612;BME280;26317;44.894;20.286;2023-07-09T04:36:13;101247.53;;;20.52;76.77
40612;BME280;26317;44.894;20.286;2023-07-09T04:38:46;101252.50;;;20.50;76.66
40612;BME280;26317;44.894;20.286;2023-07-09T04:41:16;101255.56;;;20.48;76.74
40612;BME280;26317;44.894;20.286;2023-07-09T04:43:47;101251.22;;;20.56;77.45
40612;BME280;26317;44.894;20.286;2023-07-09T04:46:17;101253.31;;;20.59;78.14
40612;BME280;26317;44.894;20.286;2023-07-09T04:48:47;101235.38;;;20.49;77.88
40612;BME280;26317;44.894;20.286;2023-07-09T04:51:18;101258.59;;;20.64;77.71
40612;BME280;26317;44.894;20.286;2023-07-09T04:53:50;101254.44;;;20.66;77.69
40612;BME280;26317;44.894;20.286;2023-07-09T04:56:21;101248.81;;;20.63;77.48
40612;BME280;26317;44.894;20.286;2023-07-09T04:58:52;101261.66;;;20.71;77.69
40612;BME280;26317;44.894;20.286;2023-07-09T05:01:23;101261.50;;;20.76;77.39
40612;BME280;26317;44.894;20.286;2023-07-09T05:03:54;101263.25;;;20.89;77.86
40612;BME280;26317;44.894;20.286;2023-07-09T05:06:24;101268.22;;;20.96;78.51
40612;BME280;26317;44.894;20.286;2023-07-09T05:08:57;101267.75;;;21.02;77.79
40612;BME280;26317;44.894;20.286;2023-07-09T05:11:28;101231.34;;;20.90;77.66
40612;BME280;26317;44.894;20.286;2023-07-09T05:13:58;101263.09;;;21.20;76.24
40612;BME280;26317;44.894;20.286;2023-07-09T05:16:29;101261.78;;;21.26;76.74
40612;BME280;26317;44.894;20.286;2023-07-09T05:18:59;101271.56;;;21.36;75.94
40612;BME280;26317;44.894;20.286;2023-07-09T05:21:29;101271.53;;;21.44;76.02
40612;BME280;26317;44.894;20.286;2023-07-09T05:24:03;101276.63;;;21.54;75.77
40612;BME280;26317;44.894;20.286;2023-07-09T05:26:33;101275.03;;;21.62;72.43
40612;BME280;26317;44.894;20.286;2023-07-09T05:29:04;101277.91;;;21.66;71.93
40612;BME280;26317;44.894;20.286;2023-07-09T05:31:35;101282.00;;;21.80;71.25
40612;BME280;26317;44.894;20.286;2023-07-09T05:34:05;101283.91;;;21.88;70.56
40612;BME280;26317;44.894;20.286;2023-07-09T05:36:36;101282.91;;;22.01;70.94
40612;BME280;26317;44.894;20.286;2023-07-09T05:39:09;101265.13;;;21.95;71.12
40612;BME280;26317;44.894;20.286;2023-07-09T05:41:39;101281.41;;;22.13;71.37
40612;BME280;26317;44.894;20.286;2023-07-09T05:44:10;101265.34;;;22.11;70.52
40612;BME280;26317;44.894;20.286;2023-07-09T05:46:40;101295.44;;;22.32;69.34
40612;BME280;26317;44.894;20.286;2023-07-09T05:49:10;101274.38;;;22.32;69.40
40612;BME280;26317;44.894;20.286;2023-07-09T05:51:41;101283.91;;;22.47;69.01
40612;BME280;26317;44.894;20.286;2023-07-09T05:54:14;101284.66;;;22.56;68.35
40612;BME280;26317;44.894;20.286;2023-07-09T05:56:46;101287.34;;;22.65;67.60
40612;BME280;26317;44.894;20.286;2023-07-09T05:59:16;101264.53;;;22.61;66.48
40612;BME280;26317;44.894;20.286;2023-07-09T06:01:47;101287.75;;;22.75;66.46
40612;BME280;26317;44.894;20.286;2023-07-09T06:04:17;101292.50;;;22.87;66.10
40612;BME280;26317;44.894;20.286;2023-07-09T06:06:47;101250.81;;;22.69;65.01
40612;BME280;26317;44.894;20.286;2023-07-09T06:09:20;101278.59;;;22.92;65.28
40612;BME280;26317;44.894;20.286;2023-07-09T06:11:51;101281.41;;;23.04;62.83
40612;BME280;26317;44.894;20.286;2023-07-09T06:14:21;101295.34;;;23.11;62.40
40612;BME280;26317;44.894;20.286;2023-07-09T06:16:51;101290.34;;;23.25;62.79
40612;BME280;26317;44.894;20.286;2023-07-09T06:19:22;101285.28;;;23.36;62.83
40612;BME280;26317;44.894;20.286;2023-07-09T06:21:52;101287.44;;;23.43;62.52
40612;BME280;26317;44.894;20.286;2023-07-09T06:24:25;101285.56;;;23.55;60.96
40612;BME280;26317;44.894;20.286;2023-07-09T06:26:56;101281.00;;;23.59;59.54
40612;BME280;26317;44.894;20.286;2023-07-09T06:29:26;101283.91;;;23.75;59.78
40612;BME280;26317;44.894;20.286;2023-07-09T06:31:57;101283.09;;;23.87;59.89
40612;BME280;26317;44.894;20.286;2023-07-09T06:34:30;101270.53;;;23.98;57.22
40612;BME280;26317;44.894;20.286;2023-07-09T06:37:02;101284.47;;;24.05;57.12
40612;BME280;26317;44.894;20.286;2023-07-09T06:39:36;101276.47;;;24.12;56.64
40612;BME280;26317;44.894;20.286;2023-07-09T06:42:07;101277.19;;;24.21;52.66
40612;BME280;26317;44.894;20.286;2023-07-09T06:44:55;101277.19;;;24.33;50.61
40612;BME280;26317;44.894;20.286;2023-07-09T06:47:26;101280.56;;;24.42;48.44
40612;BME280;26317;44.894;20.286;2023-07-09T06:49:56;101283.06;;;24.47;46.76
40612;BME280;26317;44.894;20.286;2023-07-09T06:59:29;101213.75;;;24.35;45.46
40612;BME280;26317;44.894;20.286;2023-07-09T07:02:29;101227.66;;;24.54;46.19
40612;BME280;26317;44.894;20.286;2023-07-09T07:05:00;101255.28;;;24.61;45.47
40612;BME280;26317;44.894;20.286;2023-07-09T07:07:42;101273.59;;;24.85;45.03
40612;BME280;26317;44.894;20.286;2023-07-09T07:10:43;101287.16;;;25.05;46.28
40612;BME280;26317;44.894;20.286;2023-07-09T07:13:19;101289.31;;;25.12;44.69
40612;BME280;26317;44.894;20.286;2023-07-09T07:15:52;101281.16;;;25.15;45.15
40612;BME280;26317;44.894;20.286;2023-07-09T07:18:22;101264.22;;;25.13;46.85
40612;BME280;26317;44.894;20.286;2023-07-09T07:20:55;101243.97;;;25.18;46.74
40612;BME280;26317;44.894;20.286;2023-07-09T07:23:26;101279.84;;;25.53;45.25
40612;BME280;26317;44.894;20.286;2023-07-09T07:25:56;101274.88;;;25.58;42.85
40612;BME280;26317;44.894;20.286;2023-07-09T07:28:29;101269.03;;;25.60;42.61
40612;BME280;26317;44.894;20.286;2023-07-09T07:31:04;101259.63;;;25.61;42.58
40612;BME280;26317;44.894;20.286;2023-07-09T07:33:35;101269.63;;;25.85;43.49
40612;BME280;26317;44.894;20.286;2023-07-09T07:36:06;101270.81;;;25.84;43.88
40612;BME280;26317;44.894;20.286;2023-07-09T07:38:39;101271.59;;;26.00;44.30
40612;BME280;26317;44.894;20.286;2023-07-09T07:41:10;101274.94;;;26.09;42.11
40612;BME280;26317;44.894;20.286;2023-07-09T07:43:40;101271.97;;;26.18;41.52
40612;BME280;26317;44.894;20.286;2023-07-09T07:46:13;101274.13;;;26.24;41.95
40612;BME280;26317;44.894;20.286;2023-07-09T07:48:43;101266.84;;;26.32;39.22
40612;BME280;26317;44.894;20.286;2023-07-09T07:51:14;101248.97;;;26.41;38.91
40612;BME280;26317;44.894;20.286;2023-07-09T07:53:44;101211.84;;;26.16;41.48
40612;BME280;26317;44.894;20.286;2023-07-09T07:56:14;101279.13;;;26.53;36.54
40612;BME280;26317;44.894;20.286;2023-07-09T07:58:45;101263.16;;;26.43;36.10
40612;BME280;26317;44.894;20.286;2023-07-09T08:01:18;101272.81;;;26.53;36.78
40612;BME280;26317;44.894;20.286;2023-07-09T08:03:48;101271.47;;;26.63;36.62
40612;BME280;26317;44.894;20.286;2023-07-09T08:06:18;101267.09;;;26.62;37.73
40612;BME280;26317;44.894;20.286;2023-07-09T08:09:06;101262.88;;;26.68;37.28
40612;BME280;26317;44.894;20.286;2023-07-09T08:11:37;101257.69;;;26.82;37.77
40612;BME280;26317;44.894;20.286;2023-07-09T08:14:31;101264.38;;;27.00;38.81
40612;BME280;26317;44.894;20.286;2023-07-09T08:17:09;101255.44;;;27.07;36.11
40612;BME280;26317;44.894;20.286;2023-07-09T08:20:00;101226.41;;;26.90;37.69
40612;BME280;26317;44.894;20.286;2023-07-09T08:22:36;101256.00;;;27.16;36.49
40612;BME280;26317;44.894;20.286;2023-07-09T08:25:07;101269.25;;;27.29;37.74
40612;BME280;26317;44.894;20.286;2023-07-09T08:27:38;101231.50;;;27.11;34.15
40612;BME280;26317;44.894;20.286;2023-07-09T08:30:09;101268.06;;;27.30;34.80
40612;BME280;26317;44.894;20.286;2023-07-09T08:32:42;101245.06;;;27.19;34.59
40612;BME280;26317;44.894;20.286;2023-07-09T08:35:15;101262.81;;;27.44;35.43
40612;BME280;26317;44.894;20.286;2023-07-09T08:37:48;101262.13;;;27.48;34.41
40612;BME280;26317;44.894;20.286;2023-07-09T08:40:18;101259.25;;;27.63;37.09
40612;BME280;26317;44.894;20.286;2023-07-09T08:53:31;101257.09;;;28.02;34.31
40612;BME280;26317;44.894;20.286;2023-07-09T08:56:51;101236.53;;;27.96;34.10
40612;BME280;26317;44.894;20.286;2023-07-09T09:10:01;101259.28;;;28.42;33.08
40612;BME280;26317;44.894;20.286;2023-07-09T09:12:37;101257.47;;;28.53;33.39
40612;BME280;26317;44.894;20.286;2023-07-09T09:15:14;101258.38;;;28.64;34.84
40612;BME280;26317;44.894;20.286;2023-07-09T09:18:18;101262.56;;;28.81;33.55
40612;BME280;26317;44.894;20.286;2023-07-09T09:21:16;101257.78;;;28.78;32.01
40612;BME280;26317;44.894;20.286;2023-07-09T09:23:50;101270.59;;;28.93;31.54
40612;BME280;26317;44.894;20.286;2023-07-09T09:26:31;101262.19;;;28.83;31.65
40612;BME280;26317;44.894;20.286;2023-07-09T09:29:11;101278.88;;;28.93;31.30
40612;BME280;26317;44.894;20.286;2023-07-09T09:31:45;101267.16;;;29.03;33.52
40612;BME280;26317;44.894;20.286;2023-07-09T09:34:21;101273.22;;;29.16;33.90
40612;BME280;26317;44.894;20.286;2023-07-09T09:37:26;101218.91;;;28.94;32.57
40612;BME280;26317;44.894;20.286;2023-07-09T09:39:59;101264.41;;;29.40;32.84
40612;BME280;26317;44.894;20.286;2023-07-09T09:42:37;101260.03;;;29.39;32.20
40612;BME280;26317;44.894;20.286;2023-07-09T09:45:26;101258.50;;;29.42;31.95
40612;BME280;26317;44.894;20.286;2023-07-09T09:47:59;101258.59;;;29.52;31.44
40612;BME280;26317;44.894;20.286;2023-07-09T09:50:32;101260.56;;;29.52;32.09
40612;BME280;26317;44.894;20.286;2023-07-09T09:53:07;101259.00;;;29.51;33.17
40612;BME280;26317;44.894;20.286;2023-07-09T09:55:38;101260.97;;;29.54;31.70
40612;BME280;26317;44.894;20.286;2023-07-09T09:58:15;101252.34;;;29.59;31.23
40612;BME280;26317;44.894;20.286;2023-07-09T10:00:49;101265.44;;;29.69;32.32
40612;BME280;26317;44.894;20.286;2023-07-09T10:03:20;101258.03;;;29.80;31.66
40612;BME280;26317;44.894;20.286;2023-07-09T10:05:54;101264.03;;;29.89;31.37
40612;BME280;26317;44.894;20.286;2023-07-09T10:08:32;101258.78;;;29.77;30.71
40612;BME280;26317;44.894;20.286;2023-07-09T10:11:15;101253.34;;;29.84;30.74
40612;BME280;26317;44.894;20.286;2023-07-09T10:13:52;101258.50;;;29.89;31.47
40612;BME280;26317;44.894;20.286;2023-07-09T10:16:29;101253.88;;;30.00;31.26
40612;BME280;26317;44.894;20.286;2023-07-09T10:19:12;101246.34;;;29.97;30.91
40612;BME280;26317;44.894;20.286;2023-07-09T10:24:43;101257.84;;;30.06;32.01
40612;BME280;26317;44.894;20.286;2023-07-09T10:27:22;101254.72;;;30.11;31.00
40612;BME280;26317;44.894;20.286;2023-07-09T10:30:14;101256.31;;;30.12;30.93
40612;BME280;26317;44.894;20.286;2023-07-09T10:33:08;101241.72;;;30.19;31.49
40612;BME280;26317;44.894;20.286;2023-07-09T10:35:45;101258.34;;;30.23;29.77
40612;BME280;26317;44.894;20.286;2023-07-09T10:38:36;101244.19;;;30.35;30.39
40612;BME280;26317;44.894;20.286;2023-07-09T10:41:11;101233.56;;;30.44;29.90
40612;BME280;26317;44.894;20.286;2023-07-09T10:43:57;101248.22;;;30.48;29.78
40612;BME280;26317;44.894;20.286;2023-07-09T10:46:35;101244.28;;;30.56;28.98
40612;BME280;26317;44.894;20.286;2023-07-09T10:49:10;101226.06;;;30.44;29.51
40612;BME280;26317;44.894;20.286;2023-07-09T10:51:44;101239.19;;;30.62;30.76
40612;BME280;26317;44.894;20.286;2023-07-09T10:54:24;101237.28;;;30.76;30.02
40612;BME280;26317;44.894;20.286;2023-07-09T10:57:00;101239.69;;;30.88;30.46
40612;BME280;26317;44.894;20.286;2023-07-09T10:59:35;101237.63;;;30.68;29.46
40612;BME280;26317;44.894;20.286;2023-07-09T11:02:17;101234.09;;;30.81;29.29
40612;BME280;26317;44.894;20.286;2023-07-09T11:04:52;101234.16;;;30.99;31.51
40612;BME280;26317;44.894;20.286;2023-07-09T11:07:27;101230.19;;;30.96;27.56
40612;BME280;26317;44.894;20.286;2023-07-09T11:10:14;101189.78;;;30.78;27.62
40612;BME280;26317;44.894;20.286;2023-07-09T11:12:56;101223.94;;;31.14;28.94
40612;BME280;26317;44.894;20.286;2023-07-09T11:15:37;101200.56;;;31.18;29.15
40612;BME280;26317;44.894;20.286;2023-07-09T11:18:23;101220.00;;;31.46;26.84
40612;BME280;26317;44.894;20.286;2023-07-09T11:21:00;101219.97;;;31.50;27.06
40612;BME280;26317;44.894;20.286;2023-07-09T11:23:48;101227.53;;;31.57;27.95
40612;BME280;26317;44.894;20.286;2023-07-09T11:26:26;101227.94;;;31.76;27.45
40612;BME280;26317;44.894;20.286;2023-07-09T11:29:15;101229.91;;;31.93;27.31
40612;BME280;26317;44.894;20.286;2023-07-09T11:31:48;101225.47;;;32.07;26.25
40612;BME280;26317;44.894;20.286;2023-07-09T11:34:27;101225.13;;;31.98;26.08
40612;BME280;26317;44.894;20.286;2023-07-09T11:36:59;101219.16;;;31.95;27.47
40612;BME280;26317;44.894;20.286;2023-07-09T11:39:39;101225.50;;;32.00;26.78
40612;BME280;26317;44.894;20.286;2023-07-09T11:42:27;101226.28;;;32.07;27.02
40612;BME280;26317;44.894;20.286;2023-07-09T11:45:06;101215.19;;;32.04;28.83
40612;BME280;26317;44.894;20.286;2023-07-09T11:47:41;101212.03;;;32.02;27.39
40612;BME280;26317;44.894;20.286;2023-07-09T11:50:27;101209.22;;;32.23;27.75
40612;BME280;26317;44.894;20.286;2023-07-09T11:53:01;101209.53;;;32.46;26.65
40612;BME280;26317;44.894;20.286;2023-07-09T11:56:18;101201.47;;;32.69;26.80
40612;BME280;26317;44.894;20.286;2023-07-09T11:58:51;101177.69;;;32.65;27.27
40612;BME280;26317;44.894;20.286;2023-07-09T12:01:42;101206.97;;;32.83;26.80
40612;BME280;26317;44.894;20.286;2023-07-09T12:04:49;101207.84;;;32.66;25.68
40612;BME280;26317;44.894;20.286;2023-07-09T12:11:43;101189.59;;;32.72;25.71
40612;BME280;26317;44.894;20.286;2023-07-09T12:14:17;101203.44;;;32.79;25.78
40612;BME280;26317;44.894;20.286;2023-07-09T12:16:49;101200.72;;;32.69;26.33
40612;BME280;26317;44.894;20.286;2023-07-09T12:19:21;101210.63;;;32.70;25.94
40612;BME280;26317;44.894;20.286;2023-07-09T12:21:56;101191.06;;;32.88;27.18
40612;BME280;26317;44.894;20.286;2023-07-09T12:25:02;101181.34;;;33.17;26.26
40612;BME280;26317;44.894;20.286;2023-07-09T12:35:17;101148.50;;;33.87;25.75
40612;BME280;26317;44.894;20.286;2023-07-09T12:38:23;101089.00;;;33.73;24.84
40612;BME280;26317;44.894;20.286;2023-07-09T12:49:40;101103.75;;;33.70;24.80
40612;BME280;26317;44.894;20.286;2023-07-09T12:52:28;101092.53;;;33.78;24.25
40612;BME280;26317;44.894;20.286;2023-07-09T12:58:43;101146.34;;;33.67;25.50
40612;BME280;26317;44.894;20.286;2023-07-09T13:01:15;101143.22;;;33.58;25.59
40612;BME280;26317;44.894;20.286;2023-07-09T13:11:18;101095.81;;;33.72;25.64
40612;BME280;26317;44.894;20.286;2023-07-09T13:13:55;101135.03;;;34.19;25.68
40612;BME280;26317;44.894;20.286;2023-07-09T13:16:26;101138.47;;;34.57;24.66
40612;BME280;26317;44.894;20.286;2023-07-09T13:19:02;101131.34;;;34.83;24.92
40612;BME280;26317;44.894;20.286;2023-07-09T13:21:33;101125.75;;;35.09;24.05
40612;BME280;26317;44.894;20.286;2023-07-09T13:24:05;101133.50;;;35.45;23.89
40612;BME280;26317;44.894;20.286;2023-07-09T13:26:46;101125.22;;;35.65;24.01
40612;BME280;26317;44.894;20.286;2023-07-09T13:29:37;101115.84;;;35.75;22.30
40612;BME280;26317;44.894;20.286;2023-07-09T13:32:14;101132.16;;;35.96;22.30
40612;BME280;26317;44.894;20.286;2023-07-09T13:34:54;101135.44;;;35.91;21.86
40612;BME280;26317;44.894;20.286;2023-07-09T13:37:25;101145.53;;;36.05;22.75
40612;BME280;26317;44.894;20.286;2023-07-09T13:40:34;101125.19;;;36.04;22.97
40612;BME280;26317;44.894;20.286;2023-07-09T13:43:16;101143.25;;;35.99;21.95
40612;BME280;26317;44.894;20.286;2023-07-09T13:45:46;101135.59;;;36.04;21.88
40612;BME280;26317;44.894;20.286;2023-07-09T13:48:19;101127.94;;;35.88;21.29
40612;BME280;26317;44.894;20.286;2023-07-09T13:54:12;101133.03;;;35.93;22.14
40612;BME280;26317;44.894;20.286;2023-07-09T13:56:43;101132.53;;;35.98;21.64
40612;BME280;26317;44.894;20.286;2023-07-09T13:59:39;101133.81;;;36.13;21.57
40612;BME280;26317;44.894;20.286;2023-07-09T14:02:20;101133.38;;;36.34;21.68
40612;BME280;26317;44.894;20.286;2023-07-09T14:04:51;101127.97;;;36.43;21.53
40612;BME280;26317;44.894;20.286;2023-07-09T14:07:26;101132.56;;;36.70;21.46
40612;BME280;26317;44.894;20.286;2023-07-09T14:10:25;101138.44;;;36.75;20.38
40612;BME280;26317;44.894;20.286;2023-07-09T14:13:36;101102.66;;;36.51;19.95
40612;BME280;26317;44.894;20.286;2023-07-09T14:16:10;101125.94;;;36.96;21.70
40612;BME280;26317;44.894;20.286;2023-07-09T14:18:42;101126.91;;;36.90;20.03
40612;BME280;26317;44.894;20.286;2023-07-09T14:21:14;101129.34;;;36.71;20.23
40612;BME280;26317;44.894;20.286;2023-07-09T14:26:47;101129.22;;;35.64;21.48
40612;BME280;26317;44.894;20.286;2023-07-09T14:29:21;101124.09;;;35.82;22.03
40612;BME280;26317;44.894;20.286;2023-07-09T14:38:19;101109.81;;;35.76;21.75